Time;durP1;ratioP1;P1;durP2;ratioP2;P2;SDS_P1;SDS_P2;PMS_P1;PMS_P2;Temp;Humidity;BMP_temperature;BMP_pressure;BME280_temperature;BME280_humidity;BME280_pressure;Samples;Min_cycle;Max_cycle;Signal;HPM_P1;HPM_P2
2023/08/18 00:00:11;;;;;;;4.85;2.03;;;;;;;;;;4911757;29;20056;-90
2023/08/18 00:02:42;;;;;;;3.13;1.70;;;;;;;;;;4911784;29;20244;-90
2023/08/18 00:05:15;;;;;;;;;;;;;;;;;;4928399;29;20480;-90
2023/08/18 00:07:48;;;;;;;2.58;1.40;;;;;;;;;;4928736;29;19923;-90
2023/08/18 00:10:28;;;;;;;4.63;1.38;;;;;;;;;;4903930;29;20060;-90
2023/08/18 00:12:58;;;;;;;4.38;1.10;;;;;;;;;;4911207;29;20051;-90
2023/08/18 00:15:30;;;;;;;2.17;1.65;;;;;;;;;;4911593;29;20102;-91
2023/08/18 00:17:59;;;;;;;3.83;1.55;;;;;;;;;;4926573;29;20344;-90
2023/08/18 00:20:40;;;;;;;8.23;1.75;;;;;;;;;;4911626;29;20115;-90
2023/08/18 00:23:22;;;;;;;2.67;1.45;;;;;;;;;;4913825;29;20135;-91
2023/08/18 00:25:52;;;;;;;3.08;1.15;;;;;;;;;;4930717;29;20064;-90
2023/08/18 00:28:24;;;;;;;5.68;1.58;;;;;;;;;;4930507;29;20048;-90
2023/08/18 00:30:58;;;;;;;5.03;1.90;;;;;;;;;;4931810;29;20115;-88
2023/08/18 00:33:29;;;;;;;3.17;1.55;;;;;;;;;;4917070;29;20048;-89
2023/08/18 00:35:59;;;;;;;6.43;1.77;;;;;;;;;;4936326;29;20056;-89
2023/08/18 00:38:28;;;;;;;4.90;1.90;;;;;;;;;;4917189;29;20095;-89
2023/08/18 00:40:58;;;;;;;3.13;1.70;;;;;;;;;;4933867;29;20048;-89
2023/08/18 00:43:36;;;;;;;;;;;;;;;;;;;;;
2023/08/18 00:46:04;;;;;;;2.67;1.73;;;;;;;;;;4935875;29;20105;-89
2023/08/18 00:48:32;;;;;;;3.35;1.40;;;;;;;;;;4919557;29;20052;-89
2023/08/18 00:51:08;;;;;;;4.20;2.10;;;;;;;;;;4934840;29;20067;-90
2023/08/18 00:53:40;;;;;;;4.03;2.05;;;;;;;;;;4934922;29;20080;-90
2023/08/18 00:56:10;;;;;;;4.45;1.88;;;;;;;;;;4918522;29;20056;-90
2023/08/18 00:58:38;;;;;;;6.18;1.98;;;;;;;;;;4933286;29;20368;-90
2023/08/18 01:01:11;;;;;;;7.72;1.83;;;;;;;;;;4933654;29;20056;-89
2023/08/18 01:03:41;;;;;;;5.50;1.85;;;;;;;;;;4917713;29;20112;-89
2023/08/18 01:06:09;;;;;;;6.43;1.90;;;;;;;;;;4917330;29;20088;-89
2023/08/18 01:08:53;;;;;;;2.67;1.58;;;;;;;;;;4915342;29;20064;-89
2023/08/18 01:11:33;;;;;;;4.20;1.75;;;;;;;;;;4938683;29;20055;-89
2023/08/18 01:14:27;;;;;;;6.95;1.60;;;;;;;;;;4934077;29;20119;-90
2023/08/18 01:17:01;;;;;;;3.00;2.05;;;;;;;;;;4917603;29;20056;-90
2023/08/18 01:19:35;;;;;;;4.53;2.55;;;;;;;;;;4917905;29;20380;-90
2023/08/18 01:22:11;;;;;;;5.15;1.83;;;;;;;;;;4914150;29;20048;-90
2023/08/18 01:24:42;;;;;;;3.60;1.83;;;;;;;;;;4916149;29;20115;-89
2023/08/18 01:27:16;;;;;;;4.60;1.95;;;;;;;;;;4931841;29;20052;-90
2023/08/18 01:29:44;;;;;;;6.75;1.90;;;;;;;;;;4915490;29;20070;-90
2023/08/18 01:35:35;;;;;;;5.28;2.03;;;;;;;;;;4930755;29;20091;-89
2023/08/18 01:38:05;;;;;;;6.93;1.98;;;;;;;;;;4914569;29;20059;-89
2023/08/18 01:40:35;;;;;;;4.40;2.00;;;;;;;;;;4931088;29;20115;-90
2023/08/18 01:43:06;;;;;;;3.83;1.92;;;;;;;;;;4914745;29;20060;-90
2023/08/18 01:45:43;;;;;;;7.72;2.10;;;;;;;;;;4914231;29;20055;-91
2023/08/18 01:48:16;;;;;;;4.90;2.22;;;;;;;;;;4912492;29;20052;-87
2023/08/18 01:50:55;;;;;;;5.13;2.13;;;;;;;;;;4912250;29;20044;-87
2023/08/18 01:53:26;;;;;;;5.95;1.80;;;;;;;;;;4918424;29;20079;-86
2023/08/18 01:56:24;;;;;;;7.00;2.13;;;;;;;;;;4910981;29;20455;-86
2023/08/18 01:58:57;;;;;;;5.82;1.90;;;;;;;;;;4910101;29;20040;-87
2023/08/18 02:01:27;;;;;;;2.15;1.58;;;;;;;;;;4911352;29;20048;-87
2023/08/18 02:04:02;;;;;;;3.63;1.60;;;;;;;;;;4912158;29;20063;-87
2023/08/18 02:06:53;;;;;;;4.28;1.40;;;;;;;;;;4927779;29;20036;-87
2023/08/18 02:09:56;;;;;;;9.35;2.30;;;;;;;;;;4911013;29;20044;-87
2023/08/18 02:12:38;;;;;;;7.95;1.83;;;;;;;;;;4916030;29;20060;-86
2023/08/18 02:15:20;;;;;;;4.47;1.65;;;;;;;;;;4911473;29;20056;-87
2023/08/18 02:18:04;;;;;;;3.20;1.35;;;;;;;;;;4912506;29;20052;-87
2023/08/18 02:20:38;;;;;;;4.55;1.85;;;;;;;;;;4911876;29;20432;-87
2023/08/18 02:23:10;;;;;;;5.43;1.95;;;;;;;;;;4911784;29;20436;-87
2023/08/18 02:25:48;;;;;;;3.90;1.92;;;;;;;;;;4914087;29;20079;-86
2023/08/18 02:28:23;;;;;;;3.95;1.50;;;;;;;;;;4922551;29;20059;-87
2023/08/18 02:31:15;;;;;;;4.90;1.83;;;;;;;;;;4924550;29;20063;-87
2023/08/18 02:33:51;;;;;;;4.25;2.30;;;;;;;;;;4923757;29;20144;-87
2023/08/18 02:36:32;;;;;;;5.38;1.83;;;;;;;;;;4919465;29;20072;-87
2023/08/18 02:42:03;;;;;;;2.65;2.25;;;;;;;;;;4922263;29;20055;-85
2023/08/18 02:45:15;;;;;;;9.63;2.10;;;;;;;;;;4921087;29;20087;-87
2023/08/18 02:47:59;;;;;;;4.43;2.33;;;;;;;;;;4910195;29;20048;-86
2023/08/18 02:50:50;;;;;;;;;;;;;;;;;;;;;
2023/08/18 02:53:25;;;;;;;4.82;1.95;;;;;;;;;;4932108;29;20052;-87
2023/08/18 02:56:03;;;;;;;6.15;2.25;;;;;;;;;;4928086;29;20235;-87
2023/08/18 02:58:54;;;;;;;;;;;;;;;;;;;;;
2023/08/18 03:01:41;;;;;;;3.83;2.22;;;;;;;;;;4930853;29;20055;-86
2023/08/18 03:04:25;;;;;;;5.68;1.92;;;;;;;;;;4920813;29;20052;-86
2023/08/18 03:06:57;;;;;;;4.00;2.08;;;;;;;;;;4926083;29;20056;-86
2023/08/18 03:09:46;;;;;;;9.55;3.50;;;;;;;;;;4919461;29;20062;-86
2023/08/18 03:12:23;;;;;;;4.13;2.28;;;;;;;;;;4928448;29;20148;-86
2023/08/18 03:14:59;;;;;;;5.05;2.63;;;;;;;;;;4896223;29;20056;-86
2023/08/18 03:17:33;;;;;;;7.05;2.10;;;;;;;;;;4894454;29;20056;-87
2023/08/18 03:20:22;;;;;;;6.20;2.42;;;;;;;;;;4895770;29;20213;-87
2023/08/18 03:42:18;;;;;;;;;;;;;;;;;;;;;
2023/08/18 03:45:03;;;;;;;8.95;2.70;;;;;;;;;;4923997;29;20032;-86
2023/08/18 15:46:07;;;;;;;7.35;5.95;;;;;;;;;;4443624;23;20040;-89
2023/08/18 21:08:42;;;;;;;15.88;10.63;;;;;;;;;;4922324;29;20052;-87
2023/08/18 21:11:27;;;;;;;17.60;11.48;;;;;;;;;;4908843;29;20080;-88
2023/08/18 21:21:53;;;;;;;11.83;10.57;;;;;;;;;;5454977;23;20500;-88
2023/08/18 21:24:28;;;;;;;23.40;11.20;;;;;;;;;;4894580;29;20048;-88
2023/08/18 21:27:11;;;;;;;14.82;9.38;;;;;;;;;;4894064;29;20079;-88
2023/08/18 21:29:41;;;;;;;18.02;10.95;;;;;;;;;;4893778;29;20067;-88
2023/08/18 21:32:18;;;;;;;14.82;10.75;;;;;;;;;;4893513;29;20234;-89
2023/08/18 21:34:52;;;;;;;23.05;10.15;;;;;;;;;;4891891;29;20048;-88
2023/08/18 21:37:31;;;;;;;14.68;10.82;;;;;;;;;;4895669;29;20120;-90
2023/08/18 21:40:05;;;;;;;12.57;9.95;;;;;;;;;;4894202;29;20119;-90
2023/08/18 21:42:40;;;;;;;18.42;10.30;;;;;;;;;;4895172;29;20052;-88
2023/08/18 21:45:12;;;;;;;16.40;10.35;;;;;;;;;;4896025;29;20053;-89
2023/08/18 21:47:56;;;;;;;15.95;10.23;;;;;;;;;;4909096;29;20127;-89
2023/08/18 21:50:27;;;;;;;15.75;10.90;;;;;;;;;;4906676;29;20062;-90
2023/08/18 21:53:04;;;;;;;12.63;9.75;;;;;;;;;;4893965;29;20116;-90
2023/08/18 21:55:48;;;;;;;13.98;10.65;;;;;;;;;;4910257;29;20052;-90
2023/08/18 21:58:21;;;;;;;17.73;10.27;;;;;;;;;;4910290;29;20055;-90
2023/08/18 22:00:57;;;;;;;15.20;10.20;;;;;;;;;;4895052;29;20057;-90
2023/08/18 22:03:31;;;;;;;13.23;10.30;;;;;;;;;;4913032;29;20049;-90
2023/08/18 22:06:01;;;;;;;16.42;10.18;;;;;;;;;;4913098;29;20056;-89
2023/08/18 22:08:33;;;;;;;13.30;10.60;;;;;;;;;;4896759;29;20073;-90
2023/08/18 22:11:07;;;;;;;12.73;10.15;;;;;;;;;;4914212;29;20059;-90
2023/08/18 22:13:42;;;;;;;11.38;9.38;;;;;;;;;;4893896;29;20152;-90
2023/08/18 22:16:16;;;;;;;18.02;9.60;;;;;;;;;;4912814;29;20112;-90
2023/08/18 22:19:06;;;;;;;15.20;10.25;;;;;;;;;;4895613;29;20126;-90
2023/08/18 22:25:21;;;;;;;16.98;9.52;;;;;;;;;;4913140;29;20040;-90
2023/08/18 22:28:01;;;;;;;18.70;9.68;;;;;;;;;;4898494;29;20058;-90
2023/08/18 22:30:29;;;;;;;14.65;10.02;;;;;;;;;;4911607;29;20075;-90
2023/08/18 22:33:21;;;;;;;16.77;10.57;;;;;;;;;;4897296;29;20096;-90
2023/08/18 22:35:58;;;;;;;16.10;10.43;;;;;;;;;;4912876;29;20052;-89
2023/08/18 22:38:30;;;;;;;15.68;10.57;;;;;;;;;;4898184;29;20052;-89
2023/08/18 22:41:08;;;;;;;15.57;9.88;;;;;;;;;;4898098;29;20056;-90
2023/08/18 22:43:43;;;;;;;18.48;11.02;;;;;;;;;;4914912;29;20158;-91
2023/08/18 22:46:16;;;;;;;13.23;10.63;;;;;;;;;;4892266;29;20092;-90
2023/08/18 22:48:53;;;;;;;13.27;10.02;;;;;;;;;;4908342;29;20207;-91
2023/08/18 22:51:26;;;;;;;15.23;10.23;;;;;;;;;;4907358;29;20076;-91
2023/08/18 22:53:58;;;;;;;14.80;10.35;;;;;;;;;;4908292;29;20059;-89
2023/08/18 22:56:36;;;;;;;13.25;10.18;;;;;;;;;;4897442;29;20509;-89
2023/08/18 22:59:07;;;;;;;14.80;10.70;;;;;;;;;;4908214;29;20334;-90
2023/08/18 23:01:36;;;;;;;15.32;10.60;;;;;;;;;;4892815;29;20064;-90
2023/08/18 23:04:11;;;;;;;13.85;10.40;;;;;;;;;;4893470;29;20460;-89
2023/08/18 23:06:45;;;;;;;13.05;10.10;;;;;;;;;;4899933;29;20181;-89
2023/08/18 23:09:20;;;;;;;14.82;10.52;;;;;;;;;;4898750;29;20326;-89
2023/08/18 23:11:52;;;;;;;15.15;10.43;;;;;;;;;;4908959;29;20264;-89
2023/08/18 23:14:28;;;;;;;14.85;10.25;;;;;;;;;;4891906;29;20413;-88
2023/08/18 23:16:58;;;;;;;14.55;11.15;;;;;;;;;;4908198;29;20395;-89
2023/08/18 23:19:30;;;;;;;13.32;10.43;;;;;;;;;;4890691;29;20048;-89
2023/08/18 23:22:04;;;;;;;17.30;11.20;;;;;;;;;;4894308;29;20496;-90
2023/08/18 23:27:45;;;;;;;19.77;10.80;;;;;;;;;;5174292;23;20088;-88
2023/08/18 23:31:05;;;;;;;12.50;10.75;;;;;;;;;;4939331;29;20040;-89
2023/08/18 23:33:53;;;;;;;15.98;9.77;;;;;;;;;;4934402;29;20131;-90
2023/08/18 23:36:39;;;;;;;16.38;11.98;;;;;;;;;;4911409;29;20063;-90
2023/08/18 23:39:08;;;;;;;19.58;11.50;;;;;;;;;;4910985;29;20116;-90
2023/08/18 23:41:36;;;;;;;14.18;11.30;;;;;;;;;;4926218;29;20056;-90
2023/08/18 23:44:04;;;;;;;15.55;10.95;;;;;;;;;;4911583;29;20063;-90
2023/08/18 23:46:33;;;;;;;16.67;11.27;;;;;;;;;;4926159;29;20060;-90
2023/08/18 23:49:03;;;;;;;15.35;11.98;;;;;;;;;;4910270;29;20432;-90
2023/08/18 23:51:50;;;;;;;16.60;12.68;;;;;;;;;;4912181;29;20024;-89
2023/08/18 23:54:19;;;;;;;19.27;12.30;;;;;;;;;;4909564;29;20125;-88
2023/08/18 23:57:00;;;;;;;16.90;11.85;;;;;;;;;;4909762;29;20050;-88
